Fort Worth - NOAA's Hourly Summary for Wednesday, April 19, 2017
Hour Temp
(f)
RH
(%)
Solar Rad.
(MJ/m2)
Rainfall
(in)
Wind
(mph)
4/19/2017 12:00 AM 67 88 0 0 4.24
4/19/2017 1:00 AM 67 90 0 0 3.61
4/19/2017 2:00 AM 66 92 0 0 3.81
4/19/2017 3:00 AM 66 93 0 0 5.84
4/19/2017 4:00 AM 66 92 0 0 4.75
4/19/2017 5:00 AM 66 93 0 0 4.78
4/19/2017 6:00 AM 66 93 0 0 4.81
4/19/2017 7:00 AM 67 92 0.05 0 3.9
4/19/2017 8:00 AM 68 89 0.31 0 4.55
4/19/2017 9:00 AM 68 85 0.37 0 5.95
4/19/2017 10:00 AM 69 83 0.77 0 6.25
4/19/2017 11:00 AM 73 73 1.85 0 7.58
4/19/2017 12:00 PM 74 68 1.31 0 6.1
4/19/2017 1:00 PM 76 65 1.52 0 6.37
4/19/2017 2:00 PM 79 59 2.83 0 8.7
4/19/2017 3:00 PM 80 56 2.08 0 7.6
4/19/2017 4:00 PM 81 52 1.92 0 10.45
4/19/2017 5:00 PM 82 50 1.63 0 9.36
4/19/2017 6:00 PM 81 54 1.04 0 6.96
4/19/2017 7:00 PM 79 60 0.15 0 6.74
4/19/2017 8:00 PM 77 63 0.01 0 7.85
4/19/2017 9:00 PM 76 67 0 0 7.48
4/19/2017 10:00 PM 75 70 0 0 7.62
4/19/2017 11:00 PM 73 76 0 0 6.34
Data Summary 72 75 15.84 0.00 6.32